Time;durP1;ratioP1;P1;durP2;ratioP2;P2;SDS_P1;SDS_P2;PMS_P1;PMS_P2;Temp;Humidity;BMP_temperature;BMP_pressure;BME280_temperature;BME280_humidity;BME280_pressure;Samples;Min_cycle;Max_cycle;Signal;HPM_P1;HPM_P2
2023/09/14 00:02:38;;;;;;;11.67;6.47;;;;;;;;;;6242484;28;20049;-61
2023/09/14 00:05:42;;;;;;;9.33;5.37;;;;;;;;;;6241756;28;20053;-61
2023/09/14 00:08:43;;;;;;;9.43;5.07;;;;;;;;;;6243817;28;20183;-61
2023/09/14 00:11:43;;;;;;;8.80;5.47;;;;;;;;;;6242918;28;20042;-61
2023/09/14 00:14:44;;;;;;;7.70;5.17;;;;;;;;;;6242365;28;20065;-60
2023/09/14 00:17:45;;;;;;;9.20;5.53;;;;;;;;;;6242421;28;20045;-60
2023/09/14 00:20:46;;;;;;;10.05;5.35;;;;;;;;;;6242679;28;20081;-61
2023/09/14 00:23:47;;;;;;;11.30;5.33;;;;;;;;;;6242210;28;20409;-61
2023/09/14 00:26:47;;;;;;;9.13;5.20;;;;;;;;;;6242499;28;20500;-60
2023/09/14 00:29:48;;;;;;;7.77;5.30;;;;;;;;;;6242992;28;20156;-60
2023/09/14 00:32:51;;;;;;;7.97;4.93;;;;;;;;;;6242788;28;20053;-61
2023/09/14 00:35:51;;;;;;;8.63;5.18;;;;;;;;;;6241742;28;20388;-60
2023/09/14 00:38:52;;;;;;;7.43;4.67;;;;;;;;;;6241839;28;20046;-60
2023/09/14 00:41:52;;;;;;;7.80;5.23;;;;;;;;;;6239268;28;20045;-61
2023/09/14 00:44:53;;;;;;;7.97;4.77;;;;;;;;;;6239274;28;20041;-61
2023/09/14 00:47:58;;;;;;;7.90;5.53;;;;;;;;;;6241719;28;20395;-61
2023/09/14 00:50:59;;;;;;;8.40;4.90;;;;;;;;;;6239957;28;20519;-61
2023/09/14 00:54:00;;;;;;;10.60;5.70;;;;;;;;;;6239773;28;20519;-61
2023/09/14 00:57:00;;;;;;;9.07;5.47;;;;;;;;;;6239899;28;20047;-60
2023/09/14 01:00:05;;;;;;;9.93;5.30;;;;;;;;;;6239608;28;20049;-61
2023/09/14 01:03:06;;;;;;;12.15;5.65;;;;;;;;;;6240852;28;20050;-61
2023/09/14 01:06:07;;;;;;;8.20;5.60;;;;;;;;;;6241600;28;20041;-60
2023/09/14 01:09:07;;;;;;;10.33;6.27;;;;;;;;;;6241831;28;20079;-61
2023/09/14 01:12:08;;;;;;;11.23;5.87;;;;;;;;;;6241140;28;20053;-60
2023/09/14 01:15:24;;;;;;;9.40;6.20;;;;;;;;;;6239778;28;20048;-60
2023/09/14 01:18:35;;;;;;;10.77;5.88;;;;;;;;;;6240819;28;20049;-60
2023/09/14 01:21:41;;;;;;;11.18;6.40;;;;;;;;;;6241282;28;20488;-61
2023/09/14 01:25:14;;;;;;;10.88;5.90;;;;;;;;;;6241286;28;20051;-60
2023/09/14 01:28:15;;;;;;;9.15;5.95;;;;;;;;;;6240291;28;20492;-60
2023/09/14 01:31:16;;;;;;;10.60;6.17;;;;;;;;;;6238813;28;20500;-61
2023/09/14 01:34:17;;;;;;;10.43;6.93;;;;;;;;;;6241476;28;20298;-61
2023/09/14 01:37:18;;;;;;;12.98;7.57;;;;;;;;;;6240799;28;20045;-61
2023/09/14 01:40:18;;;;;;;12.17;7.00;;;;;;;;;;6240458;28;20049;-61
2023/09/14 01:43:19;;;;;;;13.90;7.10;;;;;;;;;;6240726;28;20191;-60
2023/09/14 01:46:20;;;;;;;12.50;7.67;;;;;;;;;;6240436;28;20041;-60
2023/09/14 01:49:21;;;;;;;13.07;7.55;;;;;;;;;;6240705;28;20034;-61
2023/09/14 01:52:22;;;;;;;13.67;7.13;;;;;;;;;;6239774;28;20401;-61
2023/09/14 01:55:22;;;;;;;15.97;8.43;;;;;;;;;;6239271;28;20489;-60
2023/09/14 01:58:23;;;;;;;12.70;7.57;;;;;;;;;;6237516;28;20497;-61
2023/09/14 02:01:24;;;;;;;12.80;7.83;;;;;;;;;;6238600;28;20037;-61
2023/09/14 02:04:24;;;;;;;18.17;8.43;;;;;;;;;;6241278;28;20065;-61
2023/09/14 02:07:25;;;;;;;15.27;8.00;;;;;;;;;;6240264;28;20515;-61
2023/09/14 02:10:25;;;;;;;13.90;8.10;;;;;;;;;;6240078;28;20096;-60
2023/09/14 02:13:26;;;;;;;12.87;7.97;;;;;;;;;;6238536;28;20633;-61
2023/09/14 02:16:27;;;;;;;15.20;8.63;;;;;;;;;;6240779;28;20489;-60
2023/09/14 02:19:28;;;;;;;15.68;9.13;;;;;;;;;;6240362;28;20111;-60
2023/09/14 02:22:28;;;;;;;14.73;9.50;;;;;;;;;;6240329;28;20041;-60
2023/09/14 02:25:29;;;;;;;17.87;10.33;;;;;;;;;;6241852;28;20072;-60
2023/09/14 02:28:29;;;;;;;18.27;11.03;;;;;;;;;;6244305;28;20045;-60
2023/09/14 02:31:31;;;;;;;19.80;10.83;;;;;;;;;;6243982;28;20049;-61
2023/09/14 02:34:31;;;;;;;17.17;9.73;;;;;;;;;;6244724;28;20511;-60
2023/09/14 02:37:32;;;;;;;14.13;9.60;;;;;;;;;;6245767;28;20187;-60
2023/09/14 02:40:33;;;;;;;14.10;9.37;;;;;;;;;;6244855;28;20404;-60
2023/09/14 02:43:34;;;;;;;14.93;8.80;;;;;;;;;;6245158;28;20045;-60
2023/09/14 02:46:35;;;;;;;15.03;8.00;;;;;;;;;;6245430;28;20056;-60
2023/09/14 02:49:35;;;;;;;14.83;8.73;;;;;;;;;;6242671;28;20128;-60
2023/09/14 02:52:36;;;;;;;14.20;8.40;;;;;;;;;;6242860;28;20041;-61
2023/09/14 02:55:36;;;;;;;14.80;8.67;;;;;;;;;;6244967;28;20179;-60
2023/09/14 02:58:38;;;;;;;16.40;8.20;;;;;;;;;;6242468;28;20061;-59
2023/09/14 03:01:38;;;;;;;14.65;8.20;;;;;;;;;;6243972;28;20480;-60
2023/09/14 03:04:39;;;;;;;13.93;8.33;;;;;;;;;;6245189;28;20219;-60
2023/09/14 03:07:39;;;;;;;14.17;8.27;;;;;;;;;;6243909;28;20048;-60
2023/09/14 03:10:42;;;;;;;17.77;8.70;;;;;;;;;;6243277;28;20108;-59
2023/09/14 03:13:43;;;;;;;17.63;9.52;;;;;;;;;;6241162;28;20443;-59
2023/09/14 03:16:43;;;;;;;14.87;8.43;;;;;;;;;;6243514;28;20045;-60
2023/09/14 03:19:44;;;;;;;14.13;8.60;;;;;;;;;;6243971;28;20095;-59
2023/09/14 03:22:44;;;;;;;17.93;9.07;;;;;;;;;;6243211;28;20038;-60
2023/09/14 03:25:45;;;;;;;14.27;8.67;;;;;;;;;;6243204;28;20037;-60
2023/09/14 03:28:48;;;;;;;15.98;9.27;;;;;;;;;;6242465;28;20041;-60
2023/09/14 03:31:50;;;;;;;16.23;9.18;;;;;;;;;;6251479;28;20049;-59
2023/09/14 03:34:51;;;;;;;;;;;;;;;;;;6244260;28;20072;-61
2023/09/14 03:37:51;;;;;;;15.15;9.35;;;;;;;;;;6253218;28;19956;-60
2023/09/14 03:40:52;;;;;;;19.23;9.87;;;;;;;;;;6243297;28;20124;-60
2023/09/14 03:43:53;;;;;;;17.97;11.20;;;;;;;;;;6244358;28;20094;-60
2023/09/14 03:46:53;;;;;;;18.50;11.13;;;;;;;;;;6243441;28;20087;-60
2023/09/14 03:49:54;;;;;;;21.17;11.67;;;;;;;;;;6256712;28;20048;-60
2023/09/14 03:52:54;;;;;;;20.53;10.57;;;;;;;;;;6244016;28;20052;-60
2023/09/14 03:55:55;;;;;;;20.67;10.93;;;;;;;;;;6243814;28;20076;-59
2023/09/14 03:58:56;;;;;;;20.97;10.67;;;;;;;;;;6243206;28;20574;-60
2023/09/14 04:01:56;;;;;;;19.57;11.03;;;;;;;;;;6242032;28;20817;-60
2023/09/14 04:04:57;;;;;;;20.47;11.30;;;;;;;;;;6240168;28;20783;-61
2023/09/14 04:07:57;;;;;;;21.73;11.23;;;;;;;;;;6240365;28;20595;-60
2023/09/14 04:11:00;;;;;;;20.83;10.87;;;;;;;;;;6240795;28;20046;-60
2023/09/14 04:14:02;;;;;;;20.33;11.13;;;;;;;;;;6241579;28;20137;-61
2023/09/14 04:17:03;;;;;;;24.48;13.63;;;;;;;;;;6242173;28;20041;-61
2023/09/14 04:20:14;;;;;;;21.27;11.83;;;;;;;;;;6241973;28;20088;-62
2023/09/14 04:23:14;;;;;;;21.25;12.55;;;;;;;;;;6242092;28;20131;-62
2023/09/14 04:26:15;;;;;;;21.53;12.93;;;;;;;;;;6242702;28;20049;-61
2023/09/14 04:29:16;;;;;;;23.20;14.37;;;;;;;;;;6242200;28;20041;-61
2023/09/14 04:32:16;;;;;;;24.03;14.70;;;;;;;;;;6240490;28;20045;-62
2023/09/14 04:35:17;;;;;;;28.80;16.30;;;;;;;;;;6242362;28;20156;-62
2023/09/14 04:38:18;;;;;;;24.07;15.17;;;;;;;;;;6240080;28;20046;-61
2023/09/14 04:41:18;;;;;;;27.03;16.43;;;;;;;;;;6241070;28;20451;-62
2023/09/14 04:44:19;;;;;;;25.63;16.30;;;;;;;;;;6242367;28;20057;-61
2023/09/14 04:47:19;;;;;;;27.20;14.40;;;;;;;;;;6241331;28;20042;-62
2023/09/14 04:50:20;;;;;;;24.47;15.47;;;;;;;;;;6240341;28;20053;-62
2023/09/14 04:53:21;;;;;;;22.23;14.50;;;;;;;;;;6241223;28;20053;-62
2023/09/14 04:56:21;;;;;;;24.27;14.90;;;;;;;;;;6241326;28;20087;-62
2023/09/14 04:59:24;;;;;;;20.90;14.30;;;;;;;;;;6240368;28;20462;-62
2023/09/14 05:02:24;;;;;;;19.52;14.02;;;;;;;;;;6241784;28;20047;-62
2023/09/14 05:05:25;;;;;;;21.53;13.40;;;;;;;;;;6242298;28;20033;-62
2023/09/14 05:08:26;;;;;;;18.73;13.00;;;;;;;;;;6241177;28;20500;-62
2023/09/14 05:11:27;;;;;;;24.35;13.77;;;;;;;;;;6240978;28;20034;-61
2023/09/14 05:14:28;;;;;;;18.50;12.83;;;;;;;;;;6239639;28;20053;-61
2023/09/14 05:17:28;;;;;;;23.27;13.30;;;;;;;;;;6239418;28;20056;-61
2023/09/14 05:20:29;;;;;;;21.13;12.63;;;;;;;;;;6240234;28;20045;-62
2023/09/14 05:23:29;;;;;;;18.40;12.27;;;;;;;;;;6252321;28;20047;-60
2023/09/14 05:26:31;;;;;;;20.27;12.63;;;;;;;;;;6247688;28;20136;-62
2023/09/14 05:29:32;;;;;;;22.02;13.32;;;;;;;;;;6238165;28;20570;-61
2023/09/14 05:32:32;;;;;;;22.60;14.00;;;;;;;;;;6244341;28;20053;-63
2023/09/14 05:35:33;;;;;;;21.90;13.33;;;;;;;;;;6252531;28;20048;-62
2023/09/14 05:38:33;;;;;;;18.57;12.60;;;;;;;;;;6243270;28;20053;-63
2023/09/14 05:41:35;;;;;;;19.27;11.17;;;;;;;;;;6244941;28;20049;-61
2023/09/14 05:44:35;;;;;;;17.25;10.63;;;;;;;;;;6240469;28;20042;-62
2023/09/14 05:47:36;;;;;;;15.53;9.63;;;;;;;;;;6239684;28;20095;-62
2023/09/14 05:50:37;;;;;;;15.37;9.73;;;;;;;;;;6240136;28;20042;-62
2023/09/14 05:53:37;;;;;;;14.10;9.10;;;;;;;;;;6246753;28;20056;-61
2023/09/14 05:56:38;;;;;;;13.40;8.90;;;;;;;;;;6239804;28;20037;-61
2023/09/14 05:59:38;;;;;;;12.83;8.23;;;;;;;;;;6239043;28;20046;-61
2023/09/14 06:02:41;;;;;;;13.30;8.83;;;;;;;;;;6240219;28;20045;-62
2023/09/14 06:05:41;;;;;;;13.75;8.23;;;;;;;;;;6240722;28;20080;-61
2023/09/14 06:08:42;;;;;;;14.47;8.70;;;;;;;;;;6240011;28;20056;-61
2023/09/14 06:11:43;;;;;;;12.97;8.10;;;;;;;;;;6238396;28;20127;-62
2023/09/14 06:14:43;;;;;;;13.10;8.07;;;;;;;;;;6241167;28;20060;-61
2023/09/14 06:17:45;;;;;;;13.43;7.57;;;;;;;;;;6238586;28;20041;-61
2023/09/14 06:20:47;;;;;;;13.25;7.60;;;;;;;;;;6238190;28;20049;-62
2023/09/14 06:23:49;;;;;;;11.13;7.10;;;;;;;;;;6253566;28;20048;-61
2023/09/14 06:26:50;;;;;;;11.60;7.05;;;;;;;;;;6255392;28;20510;-61
2023/09/14 06:29:51;;;;;;;9.77;6.82;;;;;;;;;;6252965;28;20559;-61
2023/09/14 06:32:52;;;;;;;10.07;6.95;;;;;;;;;;6251637;28;20046;-62
2023/09/14 06:35:52;;;;;;;11.93;7.38;;;;;;;;;;6241937;28;20061;-62
2023/09/14 06:38:53;;;;;;;9.93;7.07;;;;;;;;;;6243845;28;20044;-61
2023/09/14 06:41:53;;;;;;;11.30;7.60;;;;;;;;;;6240414;28;20450;-62
2023/09/14 06:44:54;;;;;;;12.37;7.13;;;;;;;;;;6241373;28;20488;-62
2023/09/14 06:47:55;;;;;;;11.38;7.18;;;;;;;;;;6240702;28;20045;-61
2023/09/14 06:50:56;;;;;;;11.23;7.60;;;;;;;;;;6247950;28;20044;-61
2023/09/14 06:53:57;;;;;;;13.30;7.35;;;;;;;;;;6247048;28;20480;-62
2023/09/14 06:56:58;;;;;;;11.50;7.30;;;;;;;;;;6243580;28;20084;-63
2023/09/14 07:00:00;;;;;;;13.48;7.15;;;;;;;;;;6245632;28;20518;-62
2023/09/14 07:03:02;;;;;;;15.40;7.95;;;;;;;;;;6244905;28;20132;-62
2023/09/14 07:06:03;;;;;;;;;;;;;;;;;;6245382;28;20218;-63
2023/09/14 07:09:06;;;;;;;12.75;7.22;;;;;;;;;;6237263;28;19925;-62
2023/09/14 07:12:06;;;;;;;12.00;7.45;;;;;;;;;;6244275;28;20042;-61
2023/09/14 07:15:08;;;;;;;13.43;7.50;;;;;;;;;;6254815;28;20033;-62
2023/09/14 07:18:11;;;;;;;11.77;6.57;;;;;;;;;;6246629;28;20037;-62
2023/09/14 07:21:12;;;;;;;11.68;7.18;;;;;;;;;;6248142;28;20053;-62
2023/09/14 07:24:12;;;;;;;15.00;7.30;;;;;;;;;;6249933;28;20067;-61
2023/09/14 07:27:14;;;;;;;13.52;7.22;;;;;;;;;;6244588;28;20325;-61
2023/09/14 07:30:14;;;;;;;14.65;7.32;;;;;;;;;;6253626;28;20041;-62
2023/09/14 07:33:16;;;;;;;13.83;7.03;;;;;;;;;;6248606;28;20471;-62
2023/09/14 07:36:16;;;;;;;12.07;7.22;;;;;;;;;;6245986;28;20468;-61
2023/09/14 07:39:17;;;;;;;11.32;7.30;;;;;;;;;;6252894;28;20049;-62
2023/09/14 07:42:17;;;;;;;10.50;6.50;;;;;;;;;;6242888;28;20420;-62
2023/09/14 07:45:18;;;;;;;10.97;6.73;;;;;;;;;;6243743;28;20088;-62
2023/09/14 07:48:18;;;;;;;14.40;7.47;;;;;;;;;;6243499;28;20061;-61
2023/09/14 07:51:19;;;;;;;10.57;6.47;;;;;;;;;;6239587;28;20045;-61
2023/09/14 07:54:21;;;;;;;10.90;6.50;;;;;;;;;;6248997;28;20045;-61
2023/09/14 07:57:22;;;;;;;13.68;6.97;;;;;;;;;;6244653;28;20055;-62
2023/09/14 08:00:23;;;;;;;10.77;6.70;;;;;;;;;;6227070;28;20103;-61
2023/09/14 08:03:25;;;;;;;9.80;6.53;;;;;;;;;;6245157;28;20057;-61
2023/09/14 08:06:26;;;;;;;;;;;;;;;;;;6249659;28;20614;-61
2023/09/14 08:09:27;;;;;;;12.43;6.78;;;;;;;;;;6254402;28;20015;-61
2023/09/14 08:12:29;;;;;;;10.27;6.57;;;;;;;;;;6256062;28;20310;-60
2023/09/14 08:15:30;;;;;;;11.82;7.43;;;;;;;;;;6241466;28;20549;-62
2023/09/14 08:18:31;;;;;;;11.97;7.17;;;;;;;;;;6240670;28;20050;-62
2023/09/14 08:21:32;;;;;;;12.37;7.23;;;;;;;;;;6251215;28;20044;-61
2023/09/14 08:24:32;;;;;;;12.63;7.17;;;;;;;;;;6241009;28;20290;-62
2023/09/14 08:27:33;;;;;;;12.53;7.10;;;;;;;;;;6251509;28;20048;-61
2023/09/14 08:30:34;;;;;;;10.63;6.67;;;;;;;;;;6239157;28;20416;-61
2023/09/14 08:33:34;;;;;;;9.70;6.60;;;;;;;;;;6249829;28;20048;-62
2023/09/14 08:36:37;;;;;;;10.23;6.50;;;;;;;;;;6246535;28;20472;-61
2023/09/14 08:39:38;;;;;;;10.10;6.40;;;;;;;;;;6245307;28;20097;-63
2023/09/14 08:42:41;;;;;;;11.43;6.73;;;;;;;;;;6253784;28;20488;-62
2023/09/14 08:45:42;;;;;;;10.07;6.45;;;;;;;;;;6252175;28;20467;-61
2023/09/14 08:48:45;;;;;;;10.57;6.85;;;;;;;;;;6250839;28;20549;-61
2023/09/14 08:51:48;;;;;;;11.45;6.68;;;;;;;;;;6243422;28;20110;-61
2023/09/14 08:54:50;;;;;;;9.80;6.78;;;;;;;;;;6240884;28;20127;-61
2023/09/14 08:57:51;;;;;;;10.32;6.60;;;;;;;;;;6248608;28;20041;-62
2023/09/14 09:00:53;;;;;;;10.73;6.50;;;;;;;;;;6240005;28;20570;-61
2023/09/14 09:03:54;;;;;;;12.95;7.35;;;;;;;;;;6251221;28;20131;-62
2023/09/14 09:06:54;;;;;;;9.03;6.53;;;;;;;;;;6255457;28;20044;-61
2023/09/14 09:09:55;;;;;;;11.27;6.87;;;;;;;;;;6245629;28;20076;-61
2023/09/14 09:13:01;;;;;;;10.87;6.40;;;;;;;;;;6241846;28;20037;-61
2023/09/14 09:16:02;;;;;;;11.60;7.30;;;;;;;;;;6238003;28;20559;-61
2023/09/14 09:19:07;;;;;;;10.53;7.13;;;;;;;;;;6248215;28;20045;-61
2023/09/14 09:22:07;;;;;;;10.57;6.88;;;;;;;;;;6252108;28;20040;-61
2023/09/14 09:25:09;;;;;;;12.30;7.07;;;;;;;;;;6238296;28;20088;-62
2023/09/14 09:28:10;;;;;;;;;;;;;;;;;;6244339;28;20136;-60
2023/09/14 09:31:10;;;;;;;9.50;6.22;;;;;;;;;;6239019;28;20389;-61
2023/09/14 09:34:12;;;;;;;10.50;6.17;;;;;;;;;;6248568;28;20041;-61
2023/09/14 09:37:12;;;;;;;11.27;5.82;;;;;;;;;;6240159;28;20048;-62
2023/09/14 09:40:15;;;;;;;10.03;5.90;;;;;;;;;;6248503;28;20120;-61
2023/09/14 09:43:18;;;;;;;9.50;6.18;;;;;;;;;;6243661;28;20061;-62
2023/09/14 09:46:18;;;;;;;9.20;5.45;;;;;;;;;;6248412;28;20140;-60
2023/09/14 09:49:22;;;;;;;8.77;5.93;;;;;;;;;;6239859;28;20045;-60
2023/09/14 09:52:23;;;;;;;10.70;6.05;;;;;;;;;;6238187;28;20051;-61
2023/09/14 09:55:25;;;;;;;9.00;5.60;;;;;;;;;;6254069;28;20061;-62
2023/09/14 09:58:36;;;;;;;8.90;6.10;;;;;;;;;;6243735;28;20041;-61
2023/09/14 10:01:38;;;;;;;10.55;5.93;;;;;;;;;;6252453;28;20103;-60
2023/09/14 10:04:39;;;;;;;9.85;6.70;;;;;;;;;;6241329;28;20038;-61
2023/09/14 10:07:41;;;;;;;10.73;6.30;;;;;;;;;;6241253;28;20505;-62
2023/09/14 10:10:50;;;;;;;10.07;6.03;;;;;;;;;;6247785;28;20040;-62
2023/09/14 10:13:52;;;;;;;10.35;6.10;;;;;;;;;;6243561;28;20033;-60
2023/09/14 10:16:54;;;;;;;10.20;6.40;;;;;;;;;;6245783;28;20144;-61
2023/09/14 10:19:55;;;;;;;10.93;6.68;;;;;;;;;;6248859;28;20049;-61
2023/09/14 10:22:59;;;;;;;10.47;6.30;;;;;;;;;;6242821;28;20091;-61
2023/09/14 10:26:00;;;;;;;9.63;6.18;;;;;;;;;;6241088;28;20053;-62
2023/09/14 10:29:01;;;;;;;8.97;6.40;;;;;;;;;;6248354;28;20067;-61
2023/09/14 10:32:03;;;;;;;10.27;6.47;;;;;;;;;;6240968;28;20045;-61
2023/09/14 10:35:05;;;;;;;9.63;6.57;;;;;;;;;;6250498;28;20090;-61
2023/09/14 10:38:06;;;;;;;7.45;4.88;;;;;;;;;;6241528;28;20039;-61
2023/09/14 10:41:07;;;;;;;;;;;;;;;;;;6242648;28;20049;-61
2023/09/14 10:44:07;;;;;;;7.35;4.72;;;;;;;;;;6245807;28;19928;-61
2023/09/14 10:47:10;;;;;;;6.93;4.57;;;;;;;;;;6244889;28;20450;-61
2023/09/14 10:50:11;;;;;;;6.75;4.57;;;;;;;;;;6252985;28;20132;-61
2023/09/14 10:53:13;;;;;;;;;;;;;;;;;;6254315;28;20058;-61
2023/09/14 10:56:33;;;;;;;6.60;4.15;;;;;;;;;;6245816;28;19991;-62
2023/09/14 10:59:51;;;;;;;7.20;4.95;;;;;;;;;;6254082;28;20037;-61
2023/09/14 11:02:55;;;;;;;7.93;4.60;;;;;;;;;;6248317;28;20046;-61
2023/09/14 11:05:56;;;;;;;7.88;4.70;;;;;;;;;;6248245;28;20098;-61
2023/09/14 11:09:00;;;;;;;7.97;4.87;;;;;;;;;;6242396;28;20033;-61
2023/09/14 11:12:19;;;;;;;6.70;4.72;;;;;;;;;;6248732;28;20124;-62
2023/09/14 11:15:21;;;;;;;6.95;4.53;;;;;;;;;;6247369;28;20492;-61
2023/09/14 11:18:57;;;;;;;6.25;4.50;;;;;;;;;;6254128;28;20412;-61
2023/09/14 11:22:03;;;;;;;8.38;4.57;;;;;;;;;;6170565;28;20061;-61
2023/09/14 11:25:08;;;;;;;6.63;4.45;;;;;;;;;;6250677;28;20168;-61
2023/09/14 11:28:19;;;;;;;6.57;4.70;;;;;;;;;;6254629;28;20078;-62
2023/09/14 11:31:30;;;;;;;5.65;4.00;;;;;;;;;;6245515;28;20048;-60
2023/09/14 11:34:31;;;;;;;7.20;4.30;;;;;;;;;;6238144;28;20067;-62
2023/09/14 11:37:32;;;;;;;9.03;4.10;;;;;;;;;;6259418;28;20143;-60
2023/09/14 11:40:33;;;;;;;7.50;4.40;;;;;;;;;;6248006;28;20041;-61
2023/09/14 11:43:38;;;;;;;8.73;5.00;;;;;;;;;;6232657;28;20040;-61
2023/09/14 11:46:39;;;;;;;7.60;4.97;;;;;;;;;;6251671;28;20491;-61
2023/09/14 11:49:40;;;;;;;5.80;4.40;;;;;;;;;;6254545;28;20511;-61
2023/09/14 11:52:42;;;;;;;7.82;4.63;;;;;;;;;;6253472;28;20140;-62
2023/09/14 11:55:44;;;;;;;;;;;;;;;;;;6246892;28;20049;-61
2023/09/14 11:58:45;;;;;;;;;;;;;;;;;;6244912;28;19931;-61
2023/09/14 12:01:46;;;;;;;7.15;4.60;;;;;;;;;;6252141;28;20303;-60
2023/09/14 12:04:48;;;;;;;7.40;4.70;;;;;;;;;;6250787;28;20053;-61
2023/09/14 12:07:49;;;;;;;7.38;4.93;;;;;;;;;;6245364;28;20053;-61
2023/09/14 12:10:55;;;;;;;9.00;5.10;;;;;;;;;;6246239;28;20469;-60
2023/09/14 12:13:56;;;;;;;9.32;5.40;;;;;;;;;;6253852;28;20038;-63
2023/09/14 12:16:56;;;;;;;9.00;5.00;;;;;;;;;;6240256;28;20043;-61
2023/09/14 12:19:59;;;;;;;8.23;4.93;;;;;;;;;;6241907;28;20054;-62
2023/09/14 12:23:01;;;;;;;9.00;5.03;;;;;;;;;;6242272;28;20057;-61
2023/09/14 12:26:01;;;;;;;;;;;;;;;;;;6242407;28;20132;-61
2023/09/14 12:29:02;;;;;;;6.50;4.82;;;;;;;;;;6246896;28;19975;-60
2023/09/14 12:32:03;;;;;;;9.33;5.10;;;;;;;;;;6239792;28;20041;-61
2023/09/14 12:35:05;;;;;;;9.00;5.57;;;;;;;;;;6251747;28;20817;-61
2023/09/14 12:38:06;;;;;;;9.80;5.07;;;;;;;;;;6243568;28;20086;-61
2023/09/14 12:41:06;;;;;;;9.20;4.70;;;;;;;;;;6253573;28;20037;-61
2023/09/14 12:44:08;;;;;;;9.33;5.80;;;;;;;;;;6242871;28;20481;-61
2023/09/14 12:47:09;;;;;;;10.88;6.22;;;;;;;;;;6242733;28;20060;-61
2023/09/14 12:50:15;;;;;;;10.77;6.15;;;;;;;;;;6247356;28;20136;-60
2023/09/14 12:53:16;;;;;;;10.15;6.45;;;;;;;;;;6240570;28;20455;-60
2023/09/14 12:56:20;;;;;;;10.50;6.20;;;;;;;;;;6243966;28;20049;-60
2023/09/14 12:59:22;;;;;;;9.60;6.47;;;;;;;;;;6246496;28;20479;-60
2023/09/14 13:02:23;;;;;;;10.23;6.20;;;;;;;;;;6252902;28;20037;-60
2023/09/14 13:05:24;;;;;;;9.40;6.67;;;;;;;;;;6250681;28;20045;-61
2023/09/14 13:08:25;;;;;;;10.70;7.18;;;;;;;;;;6241296;28;20076;-61
2023/09/14 13:11:31;;;;;;;10.33;6.50;;;;;;;;;;6244547;28;20338;-60
2023/09/14 13:14:34;;;;;;;10.63;6.55;;;;;;;;;;6252132;28;20053;-61
2023/09/14 13:17:34;;;;;;;11.55;6.90;;;;;;;;;;6239727;28;20052;-62
2023/09/14 13:20:37;;;;;;;11.63;7.23;;;;;;;;;;6252832;28;20467;-60
2023/09/14 13:23:39;;;;;;;12.38;6.80;;;;;;;;;;6245271;28;20053;-60
2023/09/14 13:26:40;;;;;;;10.80;6.50;;;;;;;;;;6238358;28;20034;-60
2023/09/14 13:29:40;;;;;;;10.03;6.47;;;;;;;;;;6242684;28;20477;-60
2023/09/14 13:32:42;;;;;;;9.57;5.93;;;;;;;;;;6253038;28;20076;-62
2023/09/14 13:35:43;;;;;;;8.60;5.82;;;;;;;;;;6248913;28;20138;-60
2023/09/14 13:38:43;;;;;;;11.30;6.07;;;;;;;;;;6251312;28;20045;-60
2023/09/14 13:41:44;;;;;;;9.87;6.07;;;;;;;;;;6245053;28;20053;-61
2023/09/14 13:44:46;;;;;;;9.73;5.97;;;;;;;;;;6241459;28;20172;-61
2023/09/14 13:47:48;;;;;;;10.77;6.55;;;;;;;;;;6250336;28;20052;-60
2023/09/14 13:50:48;;;;;;;9.25;6.13;;;;;;;;;;6244507;28;20044;-65
2023/09/14 13:53:49;;;;;;;9.13;6.23;;;;;;;;;;6247392;28;20069;-63
2023/09/14 13:56:50;;;;;;;8.43;6.32;;;;;;;;;;6244956;28;20416;-61
2023/09/14 13:59:51;;;;;;;10.63;6.23;;;;;;;;;;6254958;28;20104;-62
2023/09/14 14:03:13;;;;;;;9.10;5.83;;;;;;;;;;6248654;28;20492;-63
2023/09/14 14:06:15;;;;;;;9.55;6.43;;;;;;;;;;6262713;28;20057;-60
2023/09/14 14:09:20;;;;;;;9.33;6.13;;;;;;;;;;6264772;28;20049;-60
2023/09/14 14:12:21;;;;;;;11.90;6.82;;;;;;;;;;6259463;28;20055;-62
2023/09/14 14:15:23;;;;;;;9.83;6.23;;;;;;;;;;6267243;28;20392;-62
2023/09/14 14:18:25;;;;;;;9.07;6.00;;;;;;;;;;6262698;28;20052;-62
2023/09/14 14:21:29;;;;;;;9.07;6.60;;;;;;;;;;6263065;28;20049;-61
2023/09/14 14:24:31;;;;;;;13.68;6.43;;;;;;;;;;6267375;28;20494;-61
2023/09/14 14:27:33;;;;;;;10.68;6.50;;;;;;;;;;6258527;28;20110;-61
2023/09/14 14:30:33;;;;;;;9.10;6.53;;;;;;;;;;6259664;28;20052;-61
2023/09/14 14:33:34;;;;;;;9.43;6.63;;;;;;;;;;6262772;28;20099;-61
2023/09/14 14:36:35;;;;;;;12.43;6.77;;;;;;;;;;6264762;28;20047;-62
2023/09/14 14:39:36;;;;;;;10.07;5.95;;;;;;;;;;6268739;28;20108;-62
2023/09/14 14:42:36;;;;;;;9.23;5.53;;;;;;;;;;6266251;28;20450;-61
2023/09/14 14:45:37;;;;;;;6.80;5.10;;;;;;;;;;6266878;28;20049;-61
2023/09/14 14:48:41;;;;;;;9.87;5.47;;;;;;;;;;6265019;28;20079;-62
2023/09/14 14:51:42;;;;;;;12.00;5.70;;;;;;;;;;6265824;28;20068;-61
2023/09/14 14:54:44;;;;;;;9.70;5.27;;;;;;;;;;6269471;28;20053;-58
2023/09/14 14:57:45;;;;;;;8.63;4.57;;;;;;;;;;6265380;28;20048;-64
2023/09/14 15:00:45;;;;;;;7.30;4.13;;;;;;;;;;6266368;28;20048;-63
2023/09/14 15:03:46;;;;;;;8.17;3.90;;;;;;;;;;6267310;28;20456;-57
2023/09/14 15:06:47;;;;;;;9.93;3.97;;;;;;;;;;6267868;28;20048;-60
2023/09/14 15:09:48;;;;;;;6.53;3.47;;;;;;;;;;6268150;28;20560;-65
2023/09/14 15:12:52;;;;;;;8.17;4.43;;;;;;;;;;6266924;28;20052;-59
2023/09/14 15:15:53;;;;;;;6.50;3.10;;;;;;;;;;6267652;28;20194;-53
2023/09/14 15:18:55;;;;;;;9.27;4.30;;;;;;;;;;6267514;28;20083;-59
2023/09/14 15:21:55;;;;;;;8.07;3.45;;;;;;;;;;6267443;28;20048;-61
2023/09/14 15:24:56;;;;;;;7.03;3.97;;;;;;;;;;6265495;28;20416;-64
2023/09/14 15:27:59;;;;;;;5.33;3.00;;;;;;;;;;6246426;28;20072;-63
2023/09/14 15:31:09;;;;;;;7.95;3.33;;;;;;;;;;6268345;28;20132;-62
2023/09/14 15:34:10;;;;;;;6.65;3.42;;;;;;;;;;6273464;28;20045;-59
2023/09/14 15:37:12;;;;;;;6.87;3.50;;;;;;;;;;6267181;28;20467;-66
2023/09/14 15:40:13;;;;;;;6.90;3.30;;;;;;;;;;6263631;28;20044;-60
2023/09/14 15:43:14;;;;;;;7.07;3.20;;;;;;;;;;6255173;28;20037;-57
2023/09/14 15:46:18;;;;;;;7.57;3.80;;;;;;;;;;6251345;28;20052;-61
2023/09/14 15:49:19;;;;;;;12.10;3.88;;;;;;;;;;6248811;28;20049;-62
2023/09/14 15:52:20;;;;;;;9.30;3.58;;;;;;;;;;6265261;28;20071;-62
2023/09/14 15:55:20;;;;;;;8.07;3.80;;;;;;;;;;6240505;28;20561;-62
2023/09/14 15:58:22;;;;;;;9.95;4.55;;;;;;;;;;6253538;28;20118;-62
2023/09/14 16:01:23;;;;;;;8.33;3.40;;;;;;;;;;6258550;28;20048;-62
2023/09/14 16:04:23;;;;;;;8.93;3.90;;;;;;;;;;6256036;28;20162;-62
2023/09/14 16:07:24;;;;;;;8.20;3.73;;;;;;;;;;6258092;28;20055;-63
2023/09/14 16:10:25;;;;;;;7.53;3.77;;;;;;;;;;6265595;28;20098;-62
2023/09/14 16:13:25;;;;;;;7.47;3.53;;;;;;;;;;6266152;28;20416;-61
2023/09/14 16:16:26;;;;;;;8.47;4.00;;;;;;;;;;6256864;28;20481;-61
2023/09/14 16:19:27;;;;;;;8.23;3.70;;;;;;;;;;6253153;28;20057;-64
2023/09/14 16:22:28;;;;;;;7.73;4.00;;;;;;;;;;6251072;28;20102;-63
2023/09/14 16:25:30;;;;;;;12.73;4.05;;;;;;;;;;6252038;28;20053;-63
2023/09/14 16:28:31;;;;;;;8.60;3.92;;;;;;;;;;6246185;28;20073;-61
2023/09/14 16:31:31;;;;;;;8.07;3.63;;;;;;;;;;6263882;28;20048;-63
2023/09/14 16:34:32;;;;;;;8.30;4.37;;;;;;;;;;6256842;28;20818;-63
2023/09/14 16:37:32;;;;;;;9.40;4.00;;;;;;;;;;6245577;28;20536;-62
2023/09/14 16:40:33;;;;;;;9.03;3.90;;;;;;;;;;6263510;28;20045;-61
2023/09/14 16:43:34;;;;;;;8.90;3.60;;;;;;;;;;6257103;28;20099;-62
2023/09/14 16:46:36;;;;;;;9.27;4.33;;;;;;;;;;6263996;28;20067;-62
2023/09/14 16:49:36;;;;;;;9.45;3.97;;;;;;;;;;6253097;28;20551;-62
2023/09/14 16:52:37;;;;;;;8.70;4.20;;;;;;;;;;6250702;28;20507;-62
2023/09/14 16:55:38;;;;;;;8.07;3.93;;;;;;;;;;6242730;28;20045;-62
2023/09/14 16:58:39;;;;;;;7.63;4.00;;;;;;;;;;6260041;28;20059;-63
2023/09/14 17:01:39;;;;;;;6.90;3.70;;;;;;;;;;6260746;28;20052;-62
2023/09/14 17:04:41;;;;;;;7.30;3.77;;;;;;;;;;6251432;28;20032;-63
2023/09/14 17:07:42;;;;;;;;;;;;;;;;;;6252337;28;20499;-63
2023/09/14 17:10:43;;;;;;;11.63;4.03;;;;;;;;;;6259511;28;19924;-61
2023/09/14 17:13:43;;;;;;;7.07;3.77;;;;;;;;;;6256215;28;20061;-62
2023/09/14 17:16:44;;;;;;;12.87;4.20;;;;;;;;;;6260240;28;20565;-62
2023/09/14 17:19:44;;;;;;;8.57;4.50;;;;;;;;;;6252498;28;20045;-62
2023/09/14 17:22:45;;;;;;;7.10;4.10;;;;;;;;;;6247539;28;20049;-62
2023/09/14 17:25:49;;;;;;;8.67;4.50;;;;;;;;;;6242509;28;20627;-62
2023/09/14 17:28:49;;;;;;;9.20;4.10;;;;;;;;;;6243439;28;20041;-62
2023/09/14 17:31:50;;;;;;;9.00;4.53;;;;;;;;;;6248212;28;20059;-62
2023/09/14 17:34:52;;;;;;;7.60;4.40;;;;;;;;;;6237519;28;20080;-62
2023/09/14 17:37:52;;;;;;;7.95;4.18;;;;;;;;;;6246474;28;20068;-62
2023/09/14 17:40:56;;;;;;;11.33;5.10;;;;;;;;;;6264470;28;20037;-62
2023/09/14 17:43:57;;;;;;;9.30;4.68;;;;;;;;;;6262880;28;20126;-62
2023/09/14 17:46:59;;;;;;;11.20;5.85;;;;;;;;;;6251833;28;20072;-62
2023/09/14 17:49:59;;;;;;;11.63;5.80;;;;;;;;;;6256497;28;20107;-62
2023/09/14 17:53:00;;;;;;;10.57;5.63;;;;;;;;;;6245926;28;20568;-62
2023/09/14 17:56:01;;;;;;;10.37;5.77;;;;;;;;;;6258272;28;20088;-62
2023/09/14 17:59:02;;;;;;;11.27;6.22;;;;;;;;;;6254191;28;20049;-62
2023/09/14 18:02:03;;;;;;;10.43;6.00;;;;;;;;;;6242918;28;20057;-62